Overview Statistics Trail Chart Weather Telemetry Raw packets
 

This is the latest recevied weather packets stored in our database for station/object Dunnningn. If no packets are shown the sender has not sent any weather packets the latest 10 day(s).

<< 1 2 3 4 5 >>
Time Temp. Humidity Pressure Rain* Wind** Luminosity Snow
1788598930 18.33° C 76% 1021.4 hPa 1.78 mm - - -
1788597131 16.67° C 80% 1021 hPa 1.78 mm - - -
1788595330 16.11° C 84% 1020.9 hPa 1.78 mm - - -
1788593530 15.56° C 89% 1020.7 hPa 1.78 mm - - -
1788591730 15.56° C 91% 1020.6 hPa 1.52 mm - - -
1788589930 15° C 90% 1020.5 hPa 1.52 mm - - -
1788588130 15° C 88% 1020.1 hPa 1.52 mm - - -
1788586329 15° C 86% 1020 hPa 1.27 mm - - -
1788584531 15.56° C 87% 1019.6 hPa 1.27 mm - - -
1788582730 16.11° C 86% 1019.4 hPa 0.76 mm - - -
1788580929 17.78° C 84% 1018.8 hPa 0.76 mm - - -
1788579129 18.33° C 80% 1018.9 hPa 0 mm - - -
1788577329 18.33° C 79% 1018.4 hPa 0 mm - - -
1788575529 18.33° C 77% 1018.4 hPa 0 mm - - -
1788573729 18.89° C 76% 1018.2 hPa 0 mm - - -
1788571929 19.44° C 75% 1017.8 hPa 0 mm - - -
1788570129 18.89° C 75% 1017.6 hPa 0 mm - - -
1788568332 18.89° C 75% 1017.5 hPa 0 mm - - -
1788566531 18.89° C 73% 1017.5 hPa 0 mm - - -
1788564731 18.89° C 72% 1017.3 hPa 0 mm - - -
1788562931 18.89° C 73% 1017 hPa 0 mm - - -
1788561131 19.44° C 72% 1016.8 hPa 0 mm - - -
1788559332 20.56° C 70% 1016.7 hPa 0 mm - - -
1788557531 20.56° C 68% 1016.5 hPa 0 mm - - -
1788555731 21.11° C 66% 1016.3 hPa 0 mm - - -

* Rain since midnight (hover to see other rain measurements)
** Current wind speed in m/s (hover to see current wind gust speed)